Time;durP1;ratioP1;P1;durP2;ratioP2;P2;SDS_P1;SDS_P2;PMS_P1;PMS_P2;Temp;Humidity;BMP_temperature;BMP_pressure;BME280_temperature;BME280_humidity;BME280_pressure;Samples;Min_cycle;Max_cycle;Signal;HPM_P1;HPM_P2
2023/06/23 00:01:45;;;;;;;1.45;0.63;;;12.30;93.80;;;;;;6307084;22;20007;-68
2023/06/23 00:04:12;;;;;;;0.75;0.55;;;12.30;93.60;;;;;;6308221;22;20445;-69
2023/06/23 00:06:39;;;;;;;0.50;0.50;;;12.40;93.20;;;;;;6308359;22;19995;-68
2023/06/23 00:09:13;;;;;;;1.70;0.60;;;12.40;92.70;;;;;;6307476;22;20339;-68
2023/06/23 00:11:44;;;;;;;0.50;0.40;;;12.40;91.60;;;;;;6306910;22;19996;-68
2023/06/23 00:14:12;;;;;;;1.75;0.70;;;12.50;91.60;;;;;;6307840;22;20003;-69
2023/06/23 00:16:40;;;;;;;0.45;0.45;;;12.50;91.30;;;;;;6306814;22;20011;-68
2023/06/23 00:19:07;;;;;;;0.98;0.60;;;12.50;90.90;;;;;;6307802;22;20018;-68
2023/06/23 00:21:34;;;;;;;0.63;0.55;;;12.60;89.80;;;;;;6307673;22;19996;-68
2023/06/23 00:24:01;;;;;;;0.75;0.52;;;12.60;89.90;;;;;;6308030;22;20007;-69
2023/06/23 00:26:29;;;;;;;1.00;0.50;;;12.70;89.30;;;;;;6281226;22;19999;-68
2023/06/23 00:28:56;;;;;;;1.23;0.60;;;12.70;88.50;;;;;;6307008;22;19999;-68
2023/06/23 00:31:23;;;;;;;0.60;0.50;;;12.70;88.40;;;;;;6305659;22;19995;-68
2023/06/23 00:33:50;;;;;;;0.43;0.43;;;12.80;88.30;;;;;;6307829;22;20011;-68
2023/06/23 00:36:18;;;;;;;0.98;0.60;;;12.80;87.60;;;;;;6255176;22;20490;-68
2023/06/23 00:38:45;;;;;;;0.82;0.60;;;12.90;87.30;;;;;;6255280;22;20029;-68
2023/06/23 00:41:12;;;;;;;3.28;0.90;;;12.90;87.10;;;;;;6307733;22;20026;-68
2023/06/23 00:43:39;;;;;;;1.73;0.50;;;12.90;86.30;;;;;;6307754;22;20006;-68
2023/06/23 00:46:16;;;;;;;2.05;0.60;;;13.00;86.00;;;;;;6307650;22;20100;-68
2023/06/23 00:48:43;;;;;;;0.52;0.47;;;13.00;85.50;;;;;;6281357;22;20007;-68
2023/06/23 00:51:11;;;;;;;0.57;0.57;;;13.00;84.40;;;;;;6308007;22;20071;-68
2023/06/23 00:53:38;;;;;;;1.50;0.40;;;13.10;83.90;;;;;;6307878;22;20007;-68
2023/06/23 00:56:06;;;;;;;1.10;0.50;;;13.20;83.70;;;;;;6255521;22;20014;-69
2023/06/23 00:58:34;;;;;;;0.68;0.60;;;13.20;82.00;;;;;;6255574;22;20488;-69
2023/06/23 01:01:03;;;;;;;0.57;0.40;;;13.20;83.20;;;;;;6255849;22;20003;-68
2023/06/23 01:03:30;;;;;;;3.22;0.50;;;13.30;79.90;;;;;;6307834;22;20007;-68
2023/06/23 01:05:58;;;;;;;0.90;0.50;;;13.30;79.90;;;;;;6280146;22;20034;-68
2023/06/23 01:08:36;;;;;;;0.90;0.70;;;13.30;79.60;;;;;;6280128;22;20003;-68
2023/06/23 01:11:11;;;;;;;1.00;0.38;;;13.30;80.20;;;;;;6307478;22;20018;-68
2023/06/23 01:13:43;;;;;;;0.70;0.50;;;13.30;80.20;;;;;;6280681;22;20311;-69
2023/06/23 01:16:19;;;;;;;0.63;0.40;;;13.40;78.70;;;;;;6280745;22;20015;-69
2023/06/23 01:19:18;;;;;;;1.00;0.73;;;13.40;79.20;;;;;;6255760;22;19995;-69
2023/06/23 01:22:03;;;;;;;0.60;0.60;;;13.50;79.30;;;;;;6307240;22;20061;-69
2023/06/23 01:24:44;;;;;;;1.27;0.40;;;13.50;79.00;;;;;;6283341;22;20001;-68
2023/06/23 01:27:26;;;;;;;0.68;0.60;;;13.50;78.80;;;;;;6280397;22;20003;-69
2023/06/23 01:29:53;;;;;;;0.60;0.52;;;13.50;79.00;;;;;;6307120;22;19999;-68
2023/06/23 01:32:26;;;;;;;0.90;0.75;;;13.60;77.60;;;;;;6280258;22;20003;-69
2023/06/23 01:34:59;;;;;;;0.73;0.50;;;13.60;77.20;;;;;;6255459;22;20007;-69
2023/06/23 01:37:32;;;;;;;1.80;0.80;;;13.70;75.50;;;;;;6255970;22;20003;-69
2023/06/23 01:40:06;;;;;;;1.60;0.60;;;13.70;76.40;;;;;;6255541;22;20426;-69
2023/06/23 01:42:35;;;;;;;0.80;0.70;;;13.80;75.90;;;;;;6307097;22;20022;-69
2023/06/23 01:45:04;;;;;;;1.10;0.60;;;13.80;76.00;;;;;;6280072;22;19999;-68
2023/06/23 01:47:33;;;;;;;1.33;0.60;;;13.90;74.40;;;;;;6280303;22;20004;-69
2023/06/23 01:50:07;;;;;;;0.93;0.70;;;13.90;75.20;;;;;;6307387;22;20035;-69
2023/06/23 01:52:35;;;;;;;0.80;0.80;;;13.80;74.40;;;;;;6280218;22;20507;-68
2023/06/23 01:55:02;;;;;;;1.23;0.80;;;13.90;74.40;;;;;;6254679;22;20060;-69
2023/06/23 01:57:30;;;;;;;1.95;0.70;;;13.90;75.00;;;;;;6280172;22;20424;-69
2023/06/23 01:59:57;;;;;;;2.00;0.50;;;14.00;75.20;;;;;;6254723;22;19999;-69
2023/06/23 02:02:25;;;;;;;1.67;0.40;;;14.00;74.10;;;;;;6280412;22;20013;-69
2023/06/23 02:04:52;;;;;;;2.70;0.80;;;14.00;73.90;;;;;;6255282;22;20003;-69
2023/06/23 02:07:20;;;;;;;1.20;0.90;;;14.10;73.30;;;;;;6280151;22;20000;-69
2023/06/23 02:09:47;;;;;;;0.52;0.52;;;14.10;72.40;;;;;;6254672;22;20460;-69
2023/06/23 02:12:14;;;;;;;2.33;0.77;;;14.10;72.40;;;;;;6279745;22;20373;-69
2023/06/23 02:14:41;;;;;;;1.25;0.60;;;14.10;71.50;;;;;;6254549;22;20426;-69
2023/06/23 02:17:10;;;;;;;0.60;0.38;;;14.10;70.60;;;;;;6279647;22;20049;-69
2023/06/23 02:19:44;;;;;;;0.85;0.60;;;14.20;69.80;;;;;;6254567;22;19999;-69
2023/06/23 02:22:14;;;;;;;1.38;0.50;;;14.20;70.60;;;;;;6254734;22;20007;-70
2023/06/23 02:24:41;;;;;;;0.70;0.60;;;14.20;69.50;;;;;;6279553;22;20035;-69
2023/06/23 02:27:09;;;;;;;0.73;0.40;;;14.30;70.00;;;;;;6254163;22;20007;-69
2023/06/23 02:29:36;;;;;;;1.83;0.50;;;14.20;69.30;;;;;;6254480;22;20040;-69
2023/06/23 02:32:04;;;;;;;1.83;0.57;;;14.30;69.00;;;;;;6279921;22;20003;-69
2023/06/23 02:34:31;;;;;;;3.08;0.82;;;14.30;69.00;;;;;;6306691;22;20003;-69
2023/06/23 02:37:04;;;;;;;1.48;0.70;;;14.30;67.30;;;;;;6254265;22;20083;-69
2023/06/23 02:39:34;;;;;;;1.20;0.55;;;14.40;66.30;;;;;;6279837;22;20446;-69
2023/06/23 02:42:01;;;;;;;0.98;0.55;;;14.40;65.90;;;;;;6254619;22;20050;-69
2023/06/23 02:44:38;;;;;;;0.90;0.65;;;14.40;65.90;;;;;;6279581;22;19999;-69
2023/06/23 02:47:08;;;;;;;0.95;0.70;;;14.40;65.00;;;;;;6279779;22;20003;-69
2023/06/23 02:49:35;;;;;;;;;;;14.50;64.10;;;;;;6280095;22;20023;-69
2023/06/23 02:52:02;;;;;;;3.75;0.80;;;14.40;64.10;;;;;;6279545;22;19899;-69
2023/06/23 02:54:32;;;;;;;2.95;1.60;;;14.50;63.20;;;;;;6279779;22;20006;-69
2023/06/23 02:56:59;;;;;;;4.30;2.10;;;14.50;63.90;;;;;;6279624;22;20007;-69
2023/06/23 02:59:27;;;;;;;1.38;1.00;;;14.60;63.50;;;;;;6253894;22;20296;-69
2023/06/23 03:01:54;;;;;;;0.88;0.75;;;14.70;62.90;;;;;;6228734;22;20003;-69
2023/06/23 03:04:22;;;;;;;0.60;0.60;;;14.70;62.50;;;;;;6279561;22;20019;-69
2023/06/23 03:06:50;;;;;;;1.65;0.88;;;14.60;62.90;;;;;;6305910;22;19999;-67
2023/06/23 03:09:18;;;;;;;2.45;0.65;;;14.70;63.60;;;;;;6253746;22;20003;-66
2023/06/23 03:11:45;;;;;;;0.80;0.43;;;14.70;62.50;;;;;;6306263;22;20042;-66
2023/06/23 03:14:12;;;;;;;0.93;0.50;;;14.70;62.60;;;;;;6306143;22;20038;-67
2023/06/23 03:16:49;;;;;;;0.63;0.50;;;14.70;62.40;;;;;;6306321;22;20007;-69
2023/06/23 03:19:20;;;;;;;1.00;0.70;;;14.80;62.50;;;;;;6306396;22;20079;-69
2023/06/23 03:21:55;;;;;;;1.35;0.70;;;14.80;62.00;;;;;;6279398;22;20010;-69
2023/06/23 03:24:22;;;;;;;1.63;0.60;;;14.80;62.10;;;;;;6279397;22;20433;-69
2023/06/23 03:26:50;;;;;;;1.08;0.60;;;14.80;61.60;;;;;;6279445;22;20418;-69
2023/06/23 03:29:19;;;;;;;0.68;0.55;;;14.90;61.70;;;;;;6253452;22;19999;-69
2023/06/23 03:31:47;;;;;;;0.40;0.40;;;14.80;61.50;;;;;;6279495;22;19995;-69
2023/06/23 03:34:15;;;;;;;3.05;0.57;;;14.90;60.70;;;;;;6253650;22;20003;-69
2023/06/23 03:36:42;;;;;;;0.63;0.60;;;14.80;60.80;;;;;;6228485;22;20022;-69
2023/06/23 03:39:19;;;;;;;0.52;0.47;;;14.90;60.40;;;;;;6253713;22;20007;-69
2023/06/23 03:41:46;;;;;;;2.47;0.60;;;14.90;59.00;;;;;;6274002;22;20016;-69
2023/06/23 03:44:38;;;;;;;0.70;0.40;;;14.90;59.70;;;;;;6274150;22;20000;-69
2023/06/23 03:47:09;;;;;;;0.30;0.30;;;14.90;59.70;;;;;;6263941;22;20011;-69
2023/06/23 03:49:39;;;;;;;0.28;0.28;;;14.80;59.00;;;;;;6273736;22;20031;-69
2023/06/23 03:52:06;;;;;;;1.03;0.47;;;14.90;59.00;;;;;;6273689;22;19996;-69
2023/06/23 03:54:34;;;;;;;0.65;0.55;;;14.80;59.40;;;;;;6273818;22;20082;-69
2023/06/23 03:57:02;;;;;;;0.50;0.50;;;14.90;59.20;;;;;;6273844;22;20039;-69
2023/06/23 03:59:29;;;;;;;1.63;0.73;;;14.90;58.20;;;;;;6273257;22;20004;-69
2023/06/23 04:01:57;;;;;;;3.20;0.90;;;15.00;58.30;;;;;;6248621;22;20430;-69
2023/06/23 04:04:25;;;;;;;0.77;0.77;;;15.00;58.00;;;;;;6273674;22;20023;-69
2023/06/23 04:06:52;;;;;;;2.42;0.60;;;15.00;57.30;;;;;;6273908;22;20000;-69
2023/06/23 04:09:22;;;;;;;0.40;0.40;;;15.00;56.50;;;;;;6273516;22;20004;-69
2023/06/23 04:11:49;;;;;;;0.95;0.50;;;15.00;56.70;;;;;;6273520;22;19996;-68
2023/06/23 04:14:16;;;;;;;0.73;0.40;;;15.00;56.60;;;;;;6273736;22;20015;-69
2023/06/23 04:16:44;;;;;;;1.13;0.60;;;15.00;56.40;;;;;;6273647;22;20454;-69
2023/06/23 04:19:12;;;;;;;2.42;0.55;;;15.00;56.30;;;;;;6273635;22;20003;-69
2023/06/23 04:21:39;;;;;;;0.43;0.40;;;15.00;56.80;;;;;;6273585;22;20004;-69
2023/06/23 04:24:08;;;;;;;1.45;0.60;;;15.00;56.10;;;;;;6248489;22;20008;-69
2023/06/23 04:26:35;;;;;;;0.73;0.70;;;15.10;55.10;;;;;;6275191;22;20007;-68
2023/06/23 04:29:06;;;;;;;0.50;0.40;;;15.10;54.90;;;;;;6273506;22;20004;-68
2023/06/23 04:31:34;;;;;;;0.35;0.35;;;15.10;54.80;;;;;;6273564;22;20003;-69
2023/06/23 04:34:02;;;;;;;0.70;0.68;;;15.20;54.60;;;;;;6273328;22;20057;-69
2023/06/23 04:36:40;;;;;;;0.68;0.60;;;15.20;54.50;;;;;;6274832;22;20016;-68
2023/06/23 04:39:17;;;;;;;0.32;0.32;;;15.20;54.30;;;;;;6273064;22;20089;-69
2023/06/23 04:41:44;;;;;;;0.80;0.50;;;15.20;53.30;;;;;;6292921;22;20098;-69
2023/06/23 04:44:11;;;;;;;0.45;0.40;;;15.20;52.90;;;;;;6255022;22;20053;-69
2023/06/23 04:46:40;;;;;;;1.45;0.50;;;15.20;52.90;;;;;;6280401;22;20030;-69
2023/06/23 04:49:11;;;;;;;0.40;0.40;;;15.20;52.20;;;;;;6255248;22;20061;-69
2023/06/23 04:51:41;;;;;;;0.40;0.40;;;15.20;51.60;;;;;;6281286;22;20326;-69
2023/06/23 04:54:12;;;;;;;0.98;0.75;;;15.20;51.50;;;;;;6280319;22;20365;-69
2023/06/23 04:56:39;;;;;;;0.55;0.32;;;15.20;51.00;;;;;;6281027;22;20018;-69
2023/06/23 04:59:09;;;;;;;0.38;0.35;;;15.20;50.90;;;;;;6280587;22;20070;-69
2023/06/23 05:01:36;;;;;;;0.73;0.60;;;15.20;50.20;;;;;;6280885;22;20006;-69
2023/06/23 05:04:04;;;;;;;2.03;0.68;;;15.20;50.50;;;;;;6308061;22;20010;-69
2023/06/23 05:06:31;;;;;;;3.58;1.00;;;15.20;50.00;;;;;;6280672;22;20026;-69
2023/06/23 05:08:59;;;;;;;0.95;0.63;;;15.20;50.20;;;;;;6280885;22;20069;-69
2023/06/23 05:11:26;;;;;;;0.52;0.52;;;15.20;50.30;;;;;;6254902;22;20003;-69
2023/06/23 05:13:54;;;;;;;2.78;0.90;;;15.20;49.90;;;;;;6280347;22;20074;-68
2023/06/23 05:16:21;;;;;;;0.60;0.60;;;15.20;49.80;;;;;;6279712;22;20090;-69
2023/06/23 05:18:48;;;;;;;3.30;0.45;;;15.20;49.90;;;;;;6280091;22;20003;-69
2023/06/23 05:21:16;;;;;;;0.70;0.65;;;15.20;50.10;;;;;;6255150;22;20003;-69
2023/06/23 05:23:43;;;;;;;0.63;0.52;;;15.20;50.00;;;;;;6307606;22;20437;-68
2023/06/23 05:26:13;;;;;;;0.82;0.63;;;15.20;49.80;;;;;;6254733;22;20053;-69
2023/06/23 05:28:40;;;;;;;1.02;0.57;;;15.20;49.40;;;;;;6307507;22;20003;-68
2023/06/23 05:31:08;;;;;;;2.60;0.65;;;15.20;49.20;;;;;;6255108;22;20038;-69
2023/06/23 05:33:37;;;;;;;2.97;0.50;;;15.20;49.30;;;;;;6279975;22;20330;-69
2023/06/23 05:36:08;;;;;;;2.17;0.43;;;15.20;49.20;;;;;;6254621;22;20030;-69
2023/06/23 05:38:35;;;;;;;;;;;15.20;49.50;;;;;;6255911;22;20452;-69
2023/06/23 05:41:02;;;;;;;0.47;0.40;;;15.20;49.10;;;;;;6306769;22;20025;-69
2023/06/23 05:43:29;;;;;;;0.50;0.40;;;15.20;48.70;;;;;;6254546;22;20007;-69
2023/06/23 05:45:56;;;;;;;1.33;0.65;;;15.20;48.80;;;;;;6307483;22;19999;-69
2023/06/23 05:48:53;;;;;;;1.98;0.60;;;15.20;48.90;;;;;;6279672;22;20430;-68
2023/06/23 05:51:25;;;;;;;2.95;0.70;;;15.20;48.70;;;;;;6277358;22;20007;-69
2023/06/23 05:53:54;;;;;;;0.68;0.60;;;15.20;49.10;;;;;;6306702;22;20003;-69
2023/06/23 05:56:54;;;;;;;0.40;0.30;;;15.20;49.40;;;;;;6254483;22;20383;-69
2023/06/23 05:59:27;;;;;;;0.52;0.52;;;15.10;49.50;;;;;;6279750;22;20444;-69
2023/06/23 06:01:58;;;;;;;1.05;0.60;;;15.10;49.80;;;;;;6279829;22;20007;-69
2023/06/23 06:04:27;;;;;;;1.70;0.63;;;15.10;49.80;;;;;;6254927;22;19999;-69
2023/06/23 06:06:55;;;;;;;0.52;0.52;;;15.10;49.60;;;;;;6307190;22;20003;-69
2023/06/23 06:09:22;;;;;;;1.10;0.60;;;15.10;49.90;;;;;;6254863;22;20074;-69
2023/06/23 06:11:50;;;;;;;1.05;0.38;;;15.10;49.50;;;;;;6254321;22;20476;-69
2023/06/23 06:14:17;;;;;;;1.88;0.77;;;15.00;49.60;;;;;;6254541;22;20058;-69
2023/06/23 06:16:45;;;;;;;1.35;0.50;;;15.00;49.80;;;;;;6254332;22;20007;-69
2023/06/23 06:19:13;;;;;;;0.50;0.43;;;15.00;49.70;;;;;;6279064;22;20003;-69
2023/06/23 06:21:40;;;;;;;0.70;0.50;;;15.00;49.80;;;;;;6279612;22;20022;-68
2023/06/23 06:24:09;;;;;;;0.82;0.50;;;15.00;50.20;;;;;;6228878;22;20011;-68
2023/06/23 06:26:37;;;;;;;0.57;0.40;;;15.00;49.80;;;;;;6255551;22;20453;-69
2023/06/23 06:29:05;;;;;;;1.17;0.40;;;14.90;49.80;;;;;;6280074;22;20003;-69
2023/06/23 06:31:36;;;;;;;3.40;0.80;;;14.90;50.10;;;;;;6279800;22;20271;-69
2023/06/23 06:34:04;;;;;;;0.50;0.50;;;14.90;50.20;;;;;;6255617;22;20007;-69
2023/06/23 06:36:32;;;;;;;1.73;0.70;;;14.90;50.60;;;;;;6306043;22;20019;-68
2023/06/23 06:38:59;;;;;;;0.60;0.50;;;14.90;50.60;;;;;;6305689;22;20103;-69
2023/06/23 06:41:27;;;;;;;1.20;0.90;;;14.80;50.50;;;;;;6275227;22;20080;-69
2023/06/23 06:43:56;;;;;;;4.78;0.60;;;14.80;50.40;;;;;;6250938;22;19999;-69
2023/06/23 06:46:23;;;;;;;1.38;0.68;;;14.80;50.60;;;;;;6303262;22;20064;-69
2023/06/23 06:48:51;;;;;;;0.63;0.60;;;14.80;50.70;;;;;;6250789;22;20347;-68
2023/06/23 06:51:18;;;;;;;0.25;0.25;;;14.80;50.80;;;;;;6276122;22;20003;-68
2023/06/23 06:53:46;;;;;;;2.00;0.52;;;14.70;50.60;;;;;;6247786;22;20019;-67
2023/06/23 06:56:14;;;;;;;0.52;0.47;;;14.80;50.70;;;;;;6302965;22;20011;-68
2023/06/23 06:58:41;;;;;;;2.15;0.70;;;14.70;50.60;;;;;;6301659;22;20437;-67
2023/06/23 07:01:09;;;;;;;0.45;0.40;;;14.70;50.00;;;;;;6274916;22;20011;-68
2023/06/23 07:03:39;;;;;;;0.90;0.50;;;14.70;50.10;;;;;;6274721;22;20342;-68
2023/06/23 07:06:07;;;;;;;0.65;0.50;;;14.70;50.40;;;;;;6302191;22;20150;-67
2023/06/23 07:08:34;;;;;;;3.83;0.70;;;14.70;50.50;;;;;;6301453;22;20003;-67
2023/06/23 07:11:02;;;;;;;0.90;0.60;;;14.70;51.00;;;;;;6302277;22;20115;-67
2023/06/23 07:13:29;;;;;;;1.45;0.70;;;14.70;50.90;;;;;;6274682;22;20003;-67
2023/06/23 07:15:56;;;;;;;1.40;0.50;;;14.70;50.90;;;;;;6301419;22;20541;-67
2023/06/23 07:18:24;;;;;;;1.48;0.80;;;14.60;51.10;;;;;;6301760;22;20030;-68
2023/06/23 07:20:52;;;;;;;5.25;2.65;;;14.70;51.70;;;;;;6301687;22;20034;-67
2023/06/23 07:23:19;;;;;;;5.47;2.90;;;14.60;51.60;;;;;;6275190;22;20074;-68
2023/06/23 07:25:46;;;;;;;3.92;1.90;;;14.60;51.40;;;;;;6302806;22;20003;-67
2023/06/23 07:28:13;;;;;;;3.05;1.40;;;14.60;51.40;;;;;;6301444;22;20259;-68
2023/06/23 07:30:41;;;;;;;5.38;1.15;;;14.60;51.30;;;;;;6301444;22;20543;-68
2023/06/23 07:33:08;;;;;;;4.05;1.23;;;14.60;51.10;;;;;;6302003;22;20006;-68
2023/06/23 07:35:35;;;;;;;0.98;0.88;;;14.60;51.30;;;;;;6301926;22;20011;-68
2023/06/23 07:38:02;;;;;;;0.68;0.68;;;14.60;51.00;;;;;;6301521;22;20349;-68
2023/06/23 07:40:30;;;;;;;1.38;0.68;;;14.50;50.80;;;;;;6298601;22;20007;-68
2023/06/23 07:42:57;;;;;;;1.73;0.85;;;14.50;51.10;;;;;;6300123;22;20011;-67
2023/06/23 07:45:24;;;;;;;2.42;0.90;;;14.50;51.40;;;;;;6302043;22;20094;-68
2023/06/23 07:47:52;;;;;;;1.55;1.00;;;14.50;51.30;;;;;;6301576;22;19999;-67
2023/06/23 07:50:19;;;;;;;1.75;0.90;;;14.50;51.80;;;;;;6301103;22;20034;-67
2023/06/23 07:52:52;;;;;;;3.85;0.95;;;14.50;51.40;;;;;;6298773;22;20008;-67
2023/06/23 07:55:20;;;;;;;2.30;0.80;;;14.50;51.60;;;;;;6276889;22;20019;-66
2023/06/23 07:57:48;;;;;;;1.17;1.05;;;14.40;51.80;;;;;;6300714;22;20007;-66
2023/06/23 08:00:16;;;;;;;1.17;0.90;;;14.40;52.30;;;;;;6302048;22;20016;-66
2023/06/23 08:02:43;;;;;;;1.05;0.80;;;14.40;51.80;;;;;;6276254;22;20003;-66
2023/06/23 08:05:11;;;;;;;0.60;0.60;;;14.40;51.80;;;;;;6302276;22;20035;-68
2023/06/23 08:07:39;;;;;;;1.58;0.90;;;14.40;51.40;;;;;;6276143;22;20113;-66
2023/06/23 08:10:06;;;;;;;1.08;0.68;;;14.40;51.70;;;;;;6301581;22;20111;-67
2023/06/23 08:12:35;;;;;;;0.70;0.70;;;14.40;51.80;;;;;;6302375;22;20004;-66
2023/06/23 08:15:03;;;;;;;1.35;0.93;;;14.40;51.60;;;;;;6302467;22;20445;-66
2023/06/23 08:17:30;;;;;;;2.45;1.00;;;14.40;51.50;;;;;;6277068;22;20064;-67
2023/06/23 08:19:57;;;;;;;0.98;0.73;;;14.40;52.10;;;;;;6304858;22;20418;-66
2023/06/23 08:22:24;;;;;;;1.17;0.88;;;14.30;51.80;;;;;;6303723;22;20221;-66
2023/06/23 08:24:51;;;;;;;1.48;0.90;;;14.30;52.00;;;;;;6304951;22;20003;-66
2023/06/23 08:27:19;;;;;;;0.93;0.65;;;14.30;52.30;;;;;;6304407;22;20008;-66
2023/06/23 08:29:46;;;;;;;3.67;1.15;;;14.30;52.30;;;;;;6304240;22;20006;-66
2023/06/23 08:32:14;;;;;;;1.67;0.90;;;14.30;52.10;;;;;;6303736;22;20443;-66
2023/06/23 08:34:41;;;;;;;1.58;0.90;;;14.30;52.20;;;;;;6304615;22;20003;-66
2023/06/23 08:37:08;;;;;;;0.98;0.88;;;14.30;52.70;;;;;;6302839;22;20358;-66
2023/06/23 08:39:36;;;;;;;1.15;0.88;;;14.30;52.50;;;;;;6304362;22;20012;-66
2023/06/23 08:42:03;;;;;;;2.45;0.80;;;14.30;52.60;;;;;;6303207;22;20094;-65
2023/06/23 08:44:31;;;;;;;1.23;0.93;;;14.20;52.80;;;;;;6304735;22;20419;-66
2023/06/23 08:46:58;;;;;;;2.65;1.30;;;14.20;52.80;;;;;;6276817;22;20027;-66
2023/06/23 08:49:26;;;;;;;2.85;1.60;;;14.20;52.80;;;;;;6226648;22;20011;-66
2023/06/23 08:51:53;;;;;;;3.08;1.88;;;14.20;53.30;;;;;;6250642;22;20011;-66
2023/06/23 08:54:20;;;;;;;8.13;3.20;;;14.20;53.00;;;;;;6249245;22;20104;-66
2023/06/23 08:56:48;;;;;;;4.68;1.77;;;14.20;53.40;;;;;;6277495;22;20015;-66
2023/06/23 08:59:15;;;;;;;3.65;1.42;;;14.20;53.60;;;;;;6251504;22;20381;-65
2023/06/23 09:01:43;;;;;;;2.60;1.40;;;14.20;53.90;;;;;;6304407;22;20007;-66
2023/06/23 09:04:10;;;;;;;1.88;1.40;;;14.20;53.70;;;;;;6303594;22;20025;-64
2023/06/23 09:06:37;;;;;;;2.88;1.88;;;14.20;53.70;;;;;;6304117;22;20071;-65
2023/06/23 09:09:04;;;;;;;1.17;1.08;;;14.10;53.90;;;;;;6276140;22;20003;-65
2023/06/23 09:11:32;;;;;;;2.40;1.30;;;14.10;53.90;;;;;;6304267;22;20073;-65
2023/06/23 09:14:00;;;;;;;1.45;1.13;;;14.10;53.90;;;;;;6252154;22;20015;-67
2023/06/23 09:16:28;;;;;;;1.40;1.05;;;14.10;53.90;;;;;;6276828;22;20327;-65
2023/06/23 09:18:55;;;;;;;2.97;1.10;;;14.10;53.90;;;;;;6250335;22;20105;-64
2023/06/23 09:21:22;;;;;;;1.20;1.02;;;14.10;53.80;;;;;;6252030;22;20082;-64
2023/06/23 09:24:15;;;;;;;1.58;0.98;;;14.10;54.00;;;;;;6304152;22;20003;-63
2023/06/23 09:26:50;;;;;;;3.95;1.15;;;14.00;54.40;;;;;;6300300;22;20022;-66
2023/06/23 09:29:26;;;;;;;1.25;1.00;;;14.00;54.30;;;;;;6276368;22;20004;-64
2023/06/23 09:31:54;;;;;;;1.83;1.20;;;14.00;54.40;;;;;;6304013;22;20433;-67
2023/06/23 09:34:26;;;;;;;1.27;1.00;;;14.00;54.60;;;;;;6303859;22;19999;-66
2023/06/23 09:36:55;;;;;;;1.50;1.05;;;14.00;54.40;;;;;;6276782;22;20445;-65
2023/06/23 09:39:23;;;;;;;1.27;1.13;;;14.00;54.20;;;;;;6276915;22;20007;-69
2023/06/23 09:41:57;;;;;;;1.48;1.20;;;14.00;54.50;;;;;;6225850;22;20026;-67
2023/06/23 09:44:36;;;;;;;3.33;1.30;;;14.00;54.50;;;;;;6303870;22;20015;-67
2023/06/23 09:47:04;;;;;;;1.83;1.13;;;14.00;54.50;;;;;;6277186;22;20003;-66
2023/06/23 09:50:00;;;;;;;2.60;1.60;;;13.90;54.60;;;;;;6303678;22;20003;-67
2023/06/23 09:52:28;;;;;;;2.65;1.30;;;13.90;54.80;;;;;;6281383;22;20057;-66
2023/06/23 09:54:56;;;;;;;1.63;1.27;;;13.90;54.90;;;;;;6276455;22;20434;-68
2023/06/23 09:57:23;;;;;;;1.95;1.10;;;13.90;54.90;;;;;;6277334;22;20004;-71
2023/06/23 09:59:53;;;;;;;1.63;1.10;;;13.90;54.90;;;;;;6249905;22;20108;-67
2023/06/23 10:02:24;;;;;;;;;;;13.80;54.90;;;;;;6250866;22;20481;-65
2023/06/23 10:04:57;;;;;;;2.50;1.70;;;13.80;55.10;;;;;;6303549;22;19907;-66
2023/06/23 10:07:26;;;;;;;3.13;2.20;;;13.80;56.00;;;;;;6303611;22;20014;-66
2023/06/23 10:09:57;;;;;;;3.65;2.25;;;13.80;56.20;;;;;;6303711;22;20011;-66
2023/06/23 10:12:26;;;;;;;3.88;2.53;;;13.70;56.30;;;;;;6276114;22;20465;-66
2023/06/23 10:14:55;;;;;;;7.85;2.40;;;13.70;57.60;;;;;;6303925;22;20003;-66
2023/06/23 10:17:22;;;;;;;2.33;2.00;;;13.70;57.80;;;;;;6275960;22;20078;-65
2023/06/23 10:19:50;;;;;;;4.47;2.03;;;13.70;57.80;;;;;;6303539;22;20077;-68
2023/06/23 10:22:19;;;;;;;6.50;2.30;;;13.70;58.20;;;;;;6303093;22;20045;-66
2023/06/23 10:24:52;;;;;;;3.67;1.85;;;13.60;58.20;;;;;;6303330;22;20013;-66
2023/06/23 10:27:29;;;;;;;4.60;1.95;;;13.60;58.60;;;;;;6226412;22;20011;-67
2023/06/23 10:30:00;;;;;;;2.42;1.40;;;13.60;59.50;;;;;;6251532;22;20002;-68
2023/06/23 10:32:31;;;;;;;1.48;1.20;;;13.60;58.50;;;;;;6252695;22;20007;-68
2023/06/23 10:34:59;;;;;;;1.30;1.10;;;13.50;58.50;;;;;;6275588;22;20070;-68
2023/06/23 10:37:29;;;;;;;1.92;1.50;;;13.50;58.70;;;;;;6275266;22;20007;-68
2023/06/23 10:40:04;;;;;;;1.73;1.38;;;13.50;59.00;;;;;;6250549;22;20029;-68
2023/06/23 10:42:35;;;;;;;3.97;1.58;;;13.50;59.50;;;;;;6275580;22;20027;-68
2023/06/23 10:45:03;;;;;;;2.38;1.48;;;13.50;59.90;;;;;;6251302;22;20010;-68
2023/06/23 10:47:30;;;;;;;1.83;1.20;;;13.40;59.70;;;;;;6275792;22;20007;-68
2023/06/23 10:49:57;;;;;;;3.15;1.40;;;13.50;60.00;;;;;;6301637;22;20505;-68
2023/06/23 10:52:26;;;;;;;3.28;1.50;;;13.40;60.20;;;;;;6300624;22;20006;-67
2023/06/23 10:54:54;;;;;;;2.58;1.65;;;13.40;60.80;;;;;;6298497;22;20007;-67
2023/06/23 10:57:21;;;;;;;1.80;1.60;;;13.40;60.60;;;;;;6302661;22;20007;-68
2023/06/23 11:00:05;;;;;;;2.53;1.98;;;13.30;60.50;;;;;;6302735;22;20128;-68
2023/06/23 11:02:52;;;;;;;2.63;1.50;;;13.40;60.70;;;;;;6302601;22;20450;-68
2023/06/23 11:05:19;;;;;;;1.98;1.30;;;13.40;60.20;;;;;;6302962;22;20436;-67
2023/06/23 11:08:02;;;;;;;2.30;1.40;;;13.40;59.40;;;;;;6302625;22;20855;-67
2023/06/23 11:10:57;;;;;;;3.38;1.33;;;13.30;59.50;;;;;;6275776;22;20014;-67
2023/06/23 11:13:47;;;;;;;2.10;1.40;;;13.40;59.90;;;;;;6277076;22;20061;-67
2023/06/23 11:16:15;;;;;;;1.67;1.30;;;13.40;60.60;;;;;;6302340;22;20039;-69
2023/06/23 11:19:02;;;;;;;1.77;1.30;;;13.30;60.00;;;;;;6274928;22;20480;-68
2023/06/23 11:21:35;;;;;;;1.52;1.10;;;13.30;60.40;;;;;;6302552;22;20007;-69
2023/06/23 11:24:15;;;;;;;1.83;1.13;;;13.30;60.70;;;;;;6302557;22;20007;-70
2023/06/23 11:26:52;;;;;;;2.33;1.63;;;13.30;61.10;;;;;;6300899;22;20144;-68
2023/06/23 11:29:21;;;;;;;2.63;1.60;;;13.20;60.80;;;;;;6275427;22;20007;-66
2023/06/23 11:32:08;;;;;;;1.77;1.52;;;13.20;61.20;;;;;;6250944;22;20045;-69
2023/06/23 11:34:57;;;;;;;3.22;1.70;;;13.20;61.20;;;;;;6302829;22;20101;-67
2023/06/23 11:37:28;;;;;;;2.65;2.00;;;13.20;61.50;;;;;;6250961;22;20037;-67
2023/06/23 11:39:56;;;;;;;3.40;1.50;;;13.10;61.40;;;;;;6277630;22;20365;-66
2023/06/23 11:42:23;;;;;;;3.05;1.60;;;13.10;61.30;;;;;;6305813;22;20015;-66
2023/06/23 11:44:51;;;;;;;2.38;1.63;;;13.10;61.60;;;;;;6306169;22;20081;-66
2023/06/23 11:47:24;;;;;;;1.98;1.40;;;13.10;61.40;;;;;;6253406;22;20659;-66
2023/06/23 11:49:55;;;;;;;2.03;1.52;;;13.10;61.40;;;;;;6254291;22;20006;-66
2023/06/23 11:52:23;;;;;;;1.67;1.20;;;13.10;61.40;;;;;;6281497;22;20082;-66
2023/06/23 11:54:53;;;;;;;2.58;1.20;;;13.10;61.30;;;;;;6281366;22;20443;-66
2023/06/23 11:57:21;;;;;;;1.10;0.95;;;13.10;61.50;;;;;;6281393;22;20011;-66
2023/06/23 11:59:48;;;;;;;2.35;1.10;;;13.10;61.50;;;;;;6280690;22;20004;-66
2023/06/23 12:02:15;;;;;;;2.55;1.13;;;13.10;61.40;;;;;;6281570;22;20438;-66
2023/06/23 12:04:43;;;;;;;2.60;1.20;;;13.00;61.60;;;;;;6308623;22;20003;-66
2023/06/23 12:07:10;;;;;;;2.30;1.45;;;13.10;61.50;;;;;;6307935;22;20049;-66
2023/06/23 12:09:41;;;;;;;1.58;1.10;;;13.10;61.40;;;;;;6280643;22;20437;-66
2023/06/23 12:12:09;;;;;;;2.85;1.20;;;13.00;61.30;;;;;;6308260;22;20004;-66
2023/06/23 12:14:37;;;;;;;2.22;1.33;;;13.00;61.90;;;;;;6306886;22;20003;-68
2023/06/23 12:17:11;;;;;;;1.60;1.35;;;13.00;61.70;;;;;;6279508;22;20094;-70
2023/06/23 12:19:39;;;;;;;1.60;1.30;;;13.00;62.40;;;;;;6306387;22;19995;-67
2023/06/23 12:22:17;;;;;;;2.92;1.55;;;13.00;62.60;;;;;;6280795;22;20000;-68
2023/06/23 12:24:44;;;;;;;2.35;1.40;;;13.00;62.80;;;;;;6307024;22;20406;-67
2023/06/23 12:27:12;;;;;;;2.67;1.40;;;13.00;62.60;;;;;;6306972;22;20007;-68
2023/06/23 12:29:39;;;;;;;4.72;1.65;;;12.90;62.40;;;;;;6306740;22;20137;-67
2023/06/23 12:32:07;;;;;;;3.10;1.50;;;12.90;62.30;;;;;;6280432;22;20052;-68
2023/06/23 12:34:42;;;;;;;6.95;1.52;;;12.90;62.70;;;;;;6280498;22;20419;-68
2023/06/23 12:37:16;;;;;;;12.60;1.80;;;12.90;63.30;;;;;;6281631;22;20015;-68
2023/06/23 12:39:54;;;;;;;11.52;1.60;;;12.90;62.80;;;;;;6280786;22;19999;-68
2023/06/23 12:42:22;;;;;;;8.50;1.60;;;12.80;62.50;;;;;;6255432;22;20026;-67
2023/06/23 12:44:49;;;;;;;5.75;1.48;;;12.80;62.40;;;;;;6280571;22;20003;-69
2023/06/23 12:47:17;;;;;;;2.33;1.40;;;12.80;62.70;;;;;;6255132;22;20032;-68
2023/06/23 12:49:45;;;;;;;4.22;1.50;;;12.80;62.70;;;;;;6254172;22;20007;-69
2023/06/23 12:52:12;;;;;;;2.38;1.40;;;12.80;63.00;;;;;;6306658;22;20391;-68
2023/06/23 12:54:39;;;;;;;2.20;1.35;;;12.80;63.40;;;;;;6306494;22;19995;-68
2023/06/23 12:57:08;;;;;;;1.58;1.17;;;12.80;63.30;;;;;;6306999;22;20045;-68
2023/06/23 12:59:35;;;;;;;1.50;1.10;;;12.80;63.00;;;;;;6307191;22;20027;-68
2023/06/23 13:02:03;;;;;;;2.20;0.90;;;12.70;63.30;;;;;;6306404;22;20007;-68